Terminal Aerodrome Forecast
Issued by NWS La Crosse, WI

Home | Current Version | Previous Version | Text Only | Print | Product List | Glossary On
Versions: 1 2 3 4 5 6 7 8 9 10 11 12 13 14 15 16
000
FTUS43 KARX 201120
TAFRST
TAF
KRST 201120Z 2012/2112 20009KT P6SM VCSH BKN070
      TEMPO 2012/2015 5SM -SHRA BKN045
     FM201900 22008KT P6SM -SHRA BKN045
     FM210000 16006KT P6SM -SHRA BKN040
     FM210700 21005KT 4SM -SHRA BR BKN030=

USA.gov is the U.S. government's official web portal to all federal, state and local government web resources and services.